Huvudsida
METAR-TAF:

METAR-TAF

Flygplatser :

Aigen im Ennstal, Österrike

latitud: 47-32N, longitud: 014-08E, höjd: 638 m

METAR: saknas

Tid: 23:21 (21:21 UTC)

Väderprognos

Denna rapport gjordes för 10 timmar och 6 minuter sedan, klockan 11:15 UTC
Prognos gäller från 18 kl. 12 UTC till 18 kl. 21 UTC
Vind 8 kt från ost/nordost
Sikt 10 km eller mer
Spridda moln på en höjd av 6000 ft
Få moln på en höjd av 6000 ft, Högtornande cumulus.
Sannolikhet 30% :
Temporärt
från 18 kl. 13 UTC till 18 kl. 18 UTC
Vind 10 kt varierande vindriktning
Få moln på en höjd av 6000 ft, Cumulonimbus.
Brutna moln på en höjd av 7000 ft
åska, regn
Blir
från 18 kl. 18 UTC till 18 kl. 20 UTC
Vind 3 kt varierande vindriktning
Få moln på en höjd av 6000 ft

TAF: LOXA 181115Z 1812/1821 06008KT 9999 SCT060 FEW060TCU PROB30 TEMPO 1813/1818 VRB10KT TSRA FEW060CB BKN070 BECMG 1818/1820 VRB03KT FEW060

Aktuella väderrapporter och prognoser från 4000 flygplatser (METAR- och TAF-rapporter).

De tillgängliga stationerna syns som gula och röda prickar på kartan.

För musen över prickarna för att se namnen på stationerna.

Klicka sedan för att få väderrapporter och prognoser.

För att ändra kartan: Klicka på de gröna knapparna med ett svart kors på för att zooma in; den gröna knappen med ett streck på för att zooma ut; eller på de gröna pilarna för angränsande kartor.


METAR-TAF: